MBS International Airport
KMBS : now visible

Airfield :











YOU CAN JOIN US ON...

 
LOGIN :

Register | Disclaimer

   EN    FR    IT 

 









Legend :    VFR   Marginal VFR   IFR   Intensive IFR   Very Intensive IFR
Visi :
Ceiling :
>= 8 km
>= 3000ft
5 to 8 km
1000 to 3000 ft
1500m to 5 km
500 to 1000 ft
800 to 1500m
200 to 500 ft
< 800m
< 200 ft
Symbols :   Thunderstorms  Fog  Heavy snow  Heavy precipitations  Wind > 20 kt






- Airport Elevation : 668 ft
- IATA code : MBS


KMBS - MBS International

CURRENT METAR :
  • 230453Z 16007KT 1/4SM R23/2200V3000FT FG VV002 12/10 A2991 RMK AO2 SLP130 T01220100 401220072

EXPIRED METARs :
  • 230353Z 10003KT 1/4SM R23/1800FT FG VV002 11/08 A2993 RMK AO2 SLP138 T01060083
  • 230253Z 07004KT 1/4SM R23/1800V2000FT FG VV002 10/08 A2996 RMK AO2 SLP146 T01000078 58032

TAF KMBS
Valid from the 23 at 02:00 until the 24 at 00:00 UTC


230147Z 2302/2324 11005KT 1/4SM FG OVC002 WS010/23045KT
FM230800 16009KT P6SM SCT250 WS010/23045KT
FM231200 21014KT P6SM BKN028 BKN045
FM231500 22015G30KT P6SM -SHRA BKN028 OVC045
TEMPO 2318/2320 2SM TSRA BR BKN028 OVC040CB
FM232000 29016G26KT 5SM -SHRA BKN018 OVC025
FM232200 30014G22KT P6SM SCT018 OVC025
KZOB FIR / North America



MET'MAP, your aeronautical weather chart ! - Copyright ORBIFLY December 2007 - Disclaimer

ORBIFLY MET'MAP TEAM :

Programming & Development : Alexandra Zaïnal
Concept & original design : Baudouin d'Aumeries
Assistance for programming : Marc-Olivier Méhu
Technical & hardware support : Manuel Goepfert

Contact : metmap@orbifly.com




SOURCES & CREDITS :

   NOAA       Earth
Advisory